sensor_id;sensor_type;location;lat;lon;timestamp;pressure;altitude;pressure_sealevel;temperature;humidity
9141;BME280;46330;50.822;7.126;2022-11-02T00:01:15;101090.47;;;12.81;71.97
9141;BME280;46330;50.822;7.126;2022-11-02T00:03:46;101097.41;;;12.83;72.10
9141;BME280;46330;50.822;7.126;2022-11-02T00:06:14;101094.78;;;12.83;72.08
9141;BME280;46330;50.822;7.126;2022-11-02T00:08:41;101100.91;;;12.84;72.21
9141;BME280;46330;50.822;7.126;2022-11-02T00:11:10;101079.09;;;12.80;72.51
9141;BME280;46330;50.822;7.126;2022-11-02T00:13:37;101081.69;;;12.82;72.67
9141;BME280;46330;50.822;7.126;2022-11-02T00:16:09;101085.19;;;12.82;72.57
9141;BME280;46330;50.822;7.126;2022-11-02T00:18:38;101092.22;;;12.80;72.54
9141;BME280;46330;50.822;7.126;2022-11-02T00:21:06;101087.91;;;12.79;72.35
9141;BME280;46330;50.822;7.126;2022-11-02T00:23:34;101093.09;;;12.81;71.93
9141;BME280;46330;50.822;7.126;2022-11-02T00:26:02;101078.22;;;12.81;72.50
9141;BME280;46330;50.822;7.126;2022-11-02T00:28:30;101071.22;;;12.80;72.80
9141;BME280;46330;50.822;7.126;2022-11-02T00:30:58;101080.00;;;12.79;72.61
9141;BME280;46330;50.822;7.126;2022-11-02T00:33:27;101092.22;;;12.80;72.78
9141;BME280;46330;50.822;7.126;2022-11-02T00:35:55;101097.47;;;12.80;72.73
9141;BME280;46330;50.822;7.126;2022-11-02T00:38:23;101093.16;;;12.78;72.47
9141;BME280;46330;50.822;7.126;2022-11-02T00:40:51;101092.28;;;12.79;72.85
9141;BME280;46330;50.822;7.126;2022-11-02T00:43:19;101095.84;;;12.76;72.72
9141;BME280;46330;50.822;7.126;2022-11-02T00:45:46;101090.59;;;12.76;72.68
9141;BME280;46330;50.822;7.126;2022-11-02T00:48:14;101096.72;;;12.75;72.60
9141;BME280;46330;50.822;7.126;2022-11-02T00:50:43;101092.34;;;12.76;72.72
9141;BME280;46330;50.822;7.126;2022-11-02T00:53:12;101088.84;;;12.74;72.89
9141;BME280;46330;50.822;7.126;2022-11-02T00:55:48;101094.16;;;12.72;72.92
9141;BME280;46330;50.822;7.126;2022-11-02T00:58:16;101093.25;;;12.73;72.96
9141;BME280;46330;50.822;7.126;2022-11-02T01:00:44;101095.03;;;12.71;73.09
9141;BME280;46330;50.822;7.126;2022-11-02T01:03:12;101093.22;;;12.76;72.82
9141;BME280;46330;50.822;7.126;2022-11-02T01:05:40;101097.59;;;12.74;73.13
9141;BME280;46330;50.822;7.126;2022-11-02T01:08:10;101094.97;;;12.74;73.53
9141;BME280;46330;50.822;7.126;2022-11-02T01:10:37;101091.53;;;12.71;73.26
9141;BME280;46330;50.822;7.126;2022-11-02T01:13:11;101092.41;;;12.71;73.59
9141;BME280;46330;50.822;7.126;2022-11-02T01:15:38;101098.50;;;12.73;74.08
9141;BME280;46330;50.822;7.126;2022-11-02T01:18:06;101104.66;;;12.72;73.65
9141;BME280;46330;50.822;7.126;2022-11-02T01:20:34;101095.84;;;12.76;73.46
9141;BME280;46330;50.822;7.126;2022-11-02T01:23:02;101099.34;;;12.74;73.82
9141;BME280;46330;50.822;7.126;2022-11-02T01:25:31;101102.84;;;12.76;73.41
9141;BME280;46330;50.822;7.126;2022-11-02T01:27:59;101102.78;;;12.79;73.55
9141;BME280;46330;50.822;7.126;2022-11-02T01:30:27;101106.34;;;12.76;73.91
9141;BME280;46330;50.822;7.126;2022-11-02T01:32:54;101094.09;;;12.75;73.86
9141;BME280;46330;50.822;7.126;2022-11-02T01:35:22;101091.47;;;12.75;73.96
9141;BME280;46330;50.822;7.126;2022-11-02T01:37:50;101083.59;;;12.75;73.90
9141;BME280;46330;50.822;7.126;2022-11-02T01:40:18;101096.66;;;12.78;73.85
9141;BME280;46330;50.822;7.126;2022-11-02T01:42:47;101102.78;;;12.79;73.92
9141;BME280;46330;50.822;7.126;2022-11-02T01:45:14;101094.03;;;12.78;73.91
9141;BME280;46330;50.822;7.126;2022-11-02T01:47:45;101088.84;;;12.74;73.97
9141;BME280;46330;50.822;7.126;2022-11-02T01:50:20;101096.72;;;12.74;74.22
9141;BME280;46330;50.822;7.126;2022-11-02T01:52:50;101097.59;;;12.74;74.13
9141;BME280;46330;50.822;7.126;2022-11-02T01:55:21;101096.66;;;12.77;74.21
9141;BME280;46330;50.822;7.126;2022-11-02T01:58:00;101101.97;;;12.74;74.11
9141;BME280;46330;50.822;7.126;2022-11-02T02:00:29;101095.03;;;12.71;74.31
9141;BME280;46330;50.822;7.126;2022-11-02T02:03:02;101099.41;;;12.72;74.31
9141;BME280;46330;50.822;7.126;2022-11-02T02:05:32;101095.03;;;12.71;74.52
9141;BME280;46330;50.822;7.126;2022-11-02T02:08:01;101101.28;;;12.66;74.48
9141;BME280;46330;50.822;7.126;2022-11-02T02:10:30;101096.00;;;12.67;74.69
9141;BME280;46330;50.822;7.126;2022-11-02T02:13:05;101083.84;;;12.63;74.78
9141;BME280;46330;50.822;7.126;2022-11-02T02:15:38;101088.31;;;12.58;75.36
9141;BME280;46330;50.822;7.126;2022-11-02T02:18:14;101081.47;;;12.51;75.45
9141;BME280;46330;50.822;7.126;2022-11-02T02:20:57;101090.28;;;12.47;75.80
9141;BME280;46330;50.822;7.126;2022-11-02T02:27:06;101088.78;;;12.35;76.67
9141;BME280;46330;50.822;7.126;2022-11-02T02:29:48;101086.22;;;12.31;77.04
9141;BME280;46330;50.822;7.126;2022-11-02T02:32:23;101079.41;;;12.22;77.76
9141;BME280;46330;50.822;7.126;2022-11-02T02:34:57;101083.03;;;12.15;78.01
9141;BME280;46330;50.822;7.126;2022-11-02T02:37:33;101079.53;;;12.15;78.01
9141;BME280;46330;50.822;7.126;2022-11-02T02:40:06;101083.13;;;12.11;78.33
9141;BME280;46330;50.822;7.126;2022-11-02T02:42:43;101084.94;;;12.07;78.83
9141;BME280;46330;50.822;7.126;2022-11-02T02:45:18;101085.03;;;12.03;78.78
9141;BME280;46330;50.822;7.126;2022-11-02T02:47:51;101096.44;;;12.00;79.28
9141;BME280;46330;50.822;7.126;2022-11-02T02:50:25;101093.00;;;11.97;79.28
9141;BME280;46330;50.822;7.126;2022-11-02T02:52:54;101093.00;;;11.97;79.45
9141;BME280;46330;50.822;7.126;2022-11-02T02:55:27;101091.25;;;11.96;79.40
9141;BME280;46330;50.822;7.126;2022-11-02T02:57:56;101086.94;;;11.93;79.94
9141;BME280;46330;50.822;7.126;2022-11-02T03:00:29;101081.81;;;11.87;79.99
9141;BME280;46330;50.822;7.126;2022-11-02T03:02:57;101082.72;;;11.86;80.22
9141;BME280;46330;50.822;7.126;2022-11-02T03:05:30;101088.91;;;11.80;80.48
9141;BME280;46330;50.822;7.126;2022-11-02T03:08:01;101081.09;;;11.79;80.82
9141;BME280;46330;50.822;7.126;2022-11-02T03:10:33;101081.16;;;11.74;81.10
9141;BME280;46330;50.822;7.126;2022-11-02T03:13:14;101089.06;;;11.73;80.92
9141;BME280;46330;50.822;7.126;2022-11-02T03:15:49;101082.97;;;11.68;81.55
9141;BME280;46330;50.822;7.126;2022-11-02T03:18:28;101092.59;;;11.67;81.64
9141;BME280;46330;50.822;7.126;2022-11-02T03:21:05;101086.50;;;11.65;81.52
9141;BME280;46330;50.822;7.126;2022-11-02T03:23:37;101093.50;;;11.66;81.76
9141;BME280;46330;50.822;7.126;2022-11-02T03:26:11;101094.38;;;11.65;81.79
9141;BME280;46330;50.822;7.126;2022-11-02T03:28:52;101095.28;;;11.63;81.72
9141;BME280;46330;50.822;7.126;2022-11-02T03:31:33;101100.53;;;11.61;81.97
9141;BME280;46330;50.822;7.126;2022-11-02T03:34:16;101105.81;;;11.60;82.47
9141;BME280;46330;50.822;7.126;2022-11-02T03:36:50;101111.16;;;11.54;82.46
9141;BME280;46330;50.822;7.126;2022-11-02T03:39:29;101113.78;;;11.54;82.51
9141;BME280;46330;50.822;7.126;2022-11-02T03:42:02;101112.94;;;11.52;82.67
9141;BME280;46330;50.822;7.126;2022-11-02T03:44:37;101116.50;;;11.48;82.77
9141;BME280;46330;50.822;7.126;2022-11-02T03:47:10;101116.47;;;11.49;82.88
9141;BME280;46330;50.822;7.126;2022-11-02T03:49:41;101121.69;;;11.49;82.92
9141;BME280;46330;50.822;7.126;2022-11-02T03:52:13;101127.91;;;11.45;82.77
9141;BME280;46330;50.822;7.126;2022-11-02T03:54:46;101133.13;;;11.44;83.12
9141;BME280;46330;50.822;7.126;2022-11-02T03:57:18;101125.28;;;11.44;83.01
9141;BME280;46330;50.822;7.126;2022-11-02T03:59:49;101134.94;;;11.42;82.91
9141;BME280;46330;50.822;7.126;2022-11-02T04:02:19;101130.56;;;11.41;83.45
9141;BME280;46330;50.822;7.126;2022-11-02T04:04:48;101133.19;;;11.41;83.24
9141;BME280;46330;50.822;7.126;2022-11-02T04:07:20;101147.19;;;11.37;83.58
9141;BME280;46330;50.822;7.126;2022-11-02T04:09:50;101149.88;;;11.33;83.72
9141;BME280;46330;50.822;7.126;2022-11-02T04:12:19;101140.31;;;11.32;83.64
9141;BME280;46330;50.822;7.126;2022-11-02T04:15:06;101140.38;;;11.26;83.64
9141;BME280;46330;50.822;7.126;2022-11-02T04:17:37;101156.16;;;11.23;84.10
9141;BME280;46330;50.822;7.126;2022-11-02T04:20:22;101155.31;;;11.20;84.08
9141;BME280;46330;50.822;7.126;2022-11-02T04:22:50;101157.94;;;11.18;84.35
9141;BME280;46330;50.822;7.126;2022-11-02T04:25:36;101156.28;;;11.13;84.53
9141;BME280;46330;50.822;7.126;2022-11-02T04:28:13;101161.56;;;11.10;84.78
9141;BME280;46330;50.822;7.126;2022-11-02T04:30:57;101171.22;;;11.05;85.68
9141;BME280;46330;50.822;7.126;2022-11-02T04:33:32;101172.16;;;10.99;85.63
9141;BME280;46330;50.822;7.126;2022-11-02T04:36:12;101176.53;;;10.97;85.75
9141;BME280;46330;50.822;7.126;2022-11-02T04:38:40;101173.00;;;11.00;85.66
9141;BME280;46330;50.822;7.126;2022-11-02T04:41:33;101181.78;;;10.99;85.92
9141;BME280;46330;50.822;7.126;2022-11-02T04:44:36;101185.28;;;10.98;85.85
9141;BME280;46330;50.822;7.126;2022-11-02T04:47:11;101194.03;;;10.95;86.11
9141;BME280;46330;50.822;7.126;2022-11-02T04:49:41;101198.41;;;10.95;85.85
9141;BME280;46330;50.822;7.126;2022-11-02T04:52:13;101194.09;;;10.88;86.60
9141;BME280;46330;50.822;7.126;2022-11-02T04:54:46;101199.34;;;10.89;86.14
9141;BME280;46330;50.822;7.126;2022-11-02T04:57:14;101199.38;;;10.86;86.73
9141;BME280;46330;50.822;7.126;2022-11-02T04:59:43;101201.13;;;10.84;86.65
9141;BME280;46330;50.822;7.126;2022-11-02T05:02:11;101206.38;;;10.81;86.59
9141;BME280;46330;50.822;7.126;2022-11-02T05:04:42;101211.63;;;10.83;86.47
9141;BME280;46330;50.822;7.126;2022-11-02T05:07:12;101212.50;;;10.82;86.47
9141;BME280;46330;50.822;7.126;2022-11-02T05:09:40;101216.88;;;10.78;86.41
9141;BME280;46330;50.822;7.126;2022-11-02T05:12:10;101217.78;;;10.77;86.17
9141;BME280;46330;50.822;7.126;2022-11-02T05:14:39;101216.88;;;10.78;86.37
9141;BME280;46330;50.822;7.126;2022-11-02T05:17:07;101214.31;;;10.75;86.16
9141;BME280;46330;50.822;7.126;2022-11-02T05:19:36;101224.78;;;10.75;86.33
9141;BME280;46330;50.822;7.126;2022-11-02T05:22:05;101228.34;;;10.71;86.05
9141;BME280;46330;50.822;7.126;2022-11-02T05:24:33;101231.81;;;10.70;85.92
9141;BME280;46330;50.822;7.126;2022-11-02T05:27:03;101228.31;;;10.69;85.76
9141;BME280;46330;50.822;7.126;2022-11-02T05:29:33;101240.59;;;10.64;85.97
9141;BME280;46330;50.822;7.126;2022-11-02T05:32:01;101248.41;;;10.66;85.79
9141;BME280;46330;50.822;7.126;2022-11-02T05:34:29;101244.91;;;10.68;85.36
9141;BME280;46330;50.822;7.126;2022-11-02T05:36:58;101247.44;;;10.74;84.66
9141;BME280;46330;50.822;7.126;2022-11-02T05:39:27;101248.28;;;10.78;84.55
9141;BME280;46330;50.822;7.126;2022-11-02T05:41:55;101252.69;;;10.74;84.27
9141;BME280;46330;50.822;7.126;2022-11-02T05:44:24;101251.84;;;10.74;84.50
9141;BME280;46330;50.822;7.126;2022-11-02T05:46:52;101249.25;;;10.69;84.37
9141;BME280;46330;50.822;7.126;2022-11-02T05:49:20;101248.38;;;10.69;84.49
9141;BME280;46330;50.822;7.126;2022-11-02T05:51:48;101259.75;;;10.66;84.58
9141;BME280;46330;50.822;7.126;2022-11-02T05:54:16;101256.28;;;10.63;84.22
9141;BME280;46330;50.822;7.126;2022-11-02T05:56:45;101264.19;;;10.61;84.48
9141;BME280;46330;50.822;7.126;2022-11-02T05:59:13;101277.31;;;10.55;84.49
9141;BME280;46330;50.822;7.126;2022-11-02T06:01:40;101268.56;;;10.58;84.28
9141;BME280;46330;50.822;7.126;2022-11-02T06:04:08;101282.53;;;10.55;84.62
9141;BME280;46330;50.822;7.126;2022-11-02T06:06:37;101288.66;;;10.53;84.23
9141;BME280;46330;50.822;7.126;2022-11-02T06:09:05;101281.69;;;10.52;84.53
9141;BME280;46330;50.822;7.126;2022-11-02T06:11:33;101297.38;;;10.53;84.62
9141;BME280;46330;50.822;7.126;2022-11-02T06:14:02;101295.66;;;10.52;84.70
9141;BME280;46330;50.822;7.126;2022-11-02T06:16:30;101299.09;;;10.54;84.12
9141;BME280;46330;50.822;7.126;2022-11-02T06:18:58;101300.84;;;10.54;84.29
9141;BME280;46330;50.822;7.126;2022-11-02T06:21:25;101300.88;;;10.49;84.88
9141;BME280;46330;50.822;7.126;2022-11-02T06:23:53;101306.13;;;10.48;85.12
9141;BME280;46330;50.822;7.126;2022-11-02T06:26:21;101309.59;;;10.50;85.00
9141;BME280;46330;50.822;7.126;2022-11-02T06:28:49;101324.41;;;10.54;84.84
9141;BME280;46330;50.822;7.126;2022-11-02T06:31:18;101323.50;;;10.56;84.71
9141;BME280;46330;50.822;7.126;2022-11-02T06:33:46;101325.22;;;10.59;84.88
9141;BME280;46330;50.822;7.126;2022-11-02T06:36:14;101332.13;;;10.67;84.21
9141;BME280;46330;50.822;7.126;2022-11-02T06:38:41;101335.56;;;10.74;83.46
9141;BME280;46330;50.822;7.126;2022-11-02T06:41:11;101335.47;;;10.82;83.30
9141;BME280;46330;50.822;7.126;2022-11-02T06:43:40;101348.53;;;10.85;83.35
9141;BME280;46330;50.822;7.126;2022-11-02T06:46:07;101353.66;;;10.97;82.15
9141;BME280;46330;50.822;7.126;2022-11-02T06:48:37;101332.63;;;11.06;81.78
9141;BME280;46330;50.822;7.126;2022-11-02T06:51:05;101350.03;;;11.14;81.57
9141;BME280;46330;50.822;7.126;2022-11-02T06:53:32;101352.53;;;11.22;81.31
9141;BME280;46330;50.822;7.126;2022-11-02T06:56:00;101362.94;;;11.29;80.58
9141;BME280;46330;50.822;7.126;2022-11-02T06:58:28;101372.47;;;11.33;80.65
9141;BME280;46330;50.822;7.126;2022-11-02T07:00:58;101367.13;;;11.46;79.97
9141;BME280;46330;50.822;7.126;2022-11-02T07:03:26;101366.84;;;11.71;78.70
9141;BME280;46330;50.822;7.126;2022-11-02T07:05:56;101377.94;;;11.93;77.41
9141;BME280;46330;50.822;7.126;2022-11-02T07:08:24;101386.28;;;12.22;75.88
9141;BME280;46330;50.822;7.126;2022-11-02T07:10:52;101389.13;;;12.67;74.51
9141;BME280;46330;50.822;7.126;2022-11-02T07:13:20;101395.38;;;13.12;72.37
9141;BME280;46330;50.822;7.126;2022-11-02T07:15:50;101396.59;;;13.41;71.24
9141;BME280;46330;50.822;7.126;2022-11-02T07:18:19;101389.72;;;13.34;70.59
9141;BME280;46330;50.822;7.126;2022-11-02T07:20:47;101399.88;;;13.02;72.18
9141;BME280;46330;50.822;7.126;2022-11-02T07:23:17;101403.56;;;13.44;70.18
9141;BME280;46330;50.822;7.126;2022-11-02T07:25:49;101410.47;;;13.92;68.91
9141;BME280;46330;50.822;7.126;2022-11-02T07:28:16;101404.44;;;13.43;68.89
9141;BME280;46330;50.822;7.126;2022-11-02T07:30:44;101403.72;;;13.79;67.94
9141;BME280;46330;50.822;7.126;2022-11-02T07:33:12;101418.75;;;14.16;66.93
9141;BME280;46330;50.822;7.126;2022-11-02T07:35:41;101427.03;;;14.76;65.47
9141;BME280;46330;50.822;7.126;2022-11-02T07:38:09;101414.00;;;15.06;62.83
9141;BME280;46330;50.822;7.126;2022-11-02T07:40:39;101422.09;;;15.33;61.96
9141;BME280;46330;50.822;7.126;2022-11-02T07:43:06;101429.28;;;14.92;63.06
9141;BME280;46330;50.822;7.126;2022-11-02T07:45:43;101435.66;;;15.19;63.55
9141;BME280;46330;50.822;7.126;2022-11-02T07:48:11;101440.69;;;15.28;62.65
9141;BME280;46330;50.822;7.126;2022-11-02T07:50:39;101441.91;;;15.14;62.63
9141;BME280;46330;50.822;7.126;2022-11-02T07:53:07;101446.56;;;14.67;63.30
9141;BME280;46330;50.822;7.126;2022-11-02T07:55:35;101456.72;;;14.84;62.54
9141;BME280;46330;50.822;7.126;2022-11-02T07:58:06;101460.50;;;14.72;63.25
9141;BME280;46330;50.822;7.126;2022-11-02T08:00:37;101460.38;;;14.77;62.93
9141;BME280;46330;50.822;7.126;2022-11-02T08:03:06;101465.69;;;15.46;60.98
9141;BME280;46330;50.822;7.126;2022-11-02T08:05:37;101467.41;;;15.48;60.81
9141;BME280;46330;50.822;7.126;2022-11-02T08:08:07;101466.44;;;15.17;61.79
9141;BME280;46330;50.822;7.126;2022-11-02T08:10:36;101460.69;;;15.35;61.19
9141;BME280;46330;50.822;7.126;2022-11-02T08:13:08;101465.56;;;15.17;60.90
9141;BME280;46330;50.822;7.126;2022-11-02T08:15:37;101476.97;;;15.17;61.28
9141;BME280;46330;50.822;7.126;2022-11-02T08:18:06;101484.78;;;15.22;61.16
9141;BME280;46330;50.822;7.126;2022-11-02T08:20:35;101482.63;;;15.37;60.42
9141;BME280;46330;50.822;7.126;2022-11-02T08:23:03;101480.81;;;15.39;60.45
9141;BME280;46330;50.822;7.126;2022-11-02T08:25:31;101478.78;;;15.15;60.79
9141;BME280;46330;50.822;7.126;2022-11-02T08:27:59;101491.47;;;14.99;61.01
9141;BME280;46330;50.822;7.126;2022-11-02T08:30:30;101491.81;;;14.84;60.89
9141;BME280;46330;50.822;7.126;2022-11-02T08:33:01;101492.44;;;14.95;60.68
9141;BME280;46330;50.822;7.126;2022-11-02T08:35:29;101500.28;;;14.60;61.70
9141;BME280;46330;50.822;7.126;2022-11-02T08:37:58;101499.22;;;15.05;60.45
9141;BME280;46330;50.822;7.126;2022-11-02T08:40:26;101499.38;;;15.35;59.98
9141;BME280;46330;50.822;7.126;2022-11-02T08:42:55;101490.00;;;14.86;60.13
9141;BME280;46330;50.822;7.126;2022-11-02T08:45:22;101497.75;;;14.94;60.25
9141;BME280;46330;50.822;7.126;2022-11-02T08:47:52;101478.66;;;15.20;59.13
9141;BME280;46330;50.822;7.126;2022-11-02T08:50:20;101487.09;;;15.34;58.70
9141;BME280;46330;50.822;7.126;2022-11-02T08:52:48;101489.75;;;16.00;57.89
9141;BME280;46330;50.822;7.126;2022-11-02T08:55:16;101491.50;;;15.69;57.63
9141;BME280;46330;50.822;7.126;2022-11-02T08:57:44;101496.81;;;15.67;57.74
9141;BME280;46330;50.822;7.126;2022-11-02T09:00:13;101488.81;;;16.32;55.90
9141;BME280;46330;50.822;7.126;2022-11-02T09:02:41;101495.53;;;16.73;54.84
9141;BME280;46330;50.822;7.126;2022-11-02T09:05:11;101508.19;;;16.01;55.97
9141;BME280;46330;50.822;7.126;2022-11-02T09:07:38;101504.56;;;16.04;56.45
9141;BME280;46330;50.822;7.126;2022-11-02T09:10:07;101507.34;;;16.61;56.32
9141;BME280;46330;50.822;7.126;2022-11-02T09:12:34;101502.19;;;16.86;54.88
9141;BME280;46330;50.822;7.126;2022-11-02T09:15:03;101515.28;;;16.61;54.83
9141;BME280;46330;50.822;7.126;2022-11-02T09:17:31;101511.03;;;16.25;54.98
9141;BME280;46330;50.822;7.126;2022-11-02T09:19:58;101525.38;;;16.47;55.47
9141;BME280;46330;50.822;7.126;2022-11-02T09:22:27;101510.44;;;16.44;55.03
9141;BME280;46330;50.822;7.126;2022-11-02T09:24:55;101518.63;;;16.35;55.17
9141;BME280;46330;50.822;7.126;2022-11-02T09:27:23;101529.75;;;16.77;53.64
9141;BME280;46330;50.822;7.126;2022-11-02T09:29:51;101525.25;;;17.08;53.18
9141;BME280;46330;50.822;7.126;2022-11-02T09:32:19;101522.16;;;16.36;55.08
9141;BME280;46330;50.822;7.126;2022-11-02T09:34:46;101526.09;;;16.50;53.95
9141;BME280;46330;50.822;7.126;2022-11-02T09:37:15;101537.31;;;16.89;53.37
9141;BME280;46330;50.822;7.126;2022-11-02T09:39:45;101536.34;;;16.32;53.94
9141;BME280;46330;50.822;7.126;2022-11-02T09:42:18;101537.66;;;16.17;53.59
9141;BME280;46330;50.822;7.126;2022-11-02T09:44:52;101550.56;;;16.28;52.73
9141;BME280;46330;50.822;7.126;2022-11-02T09:47:23;101550.75;;;16.82;52.42
9141;BME280;46330;50.822;7.126;2022-11-02T09:50:15;101540.63;;;16.66;51.91
9141;BME280;46330;50.822;7.126;2022-11-02T09:52:47;101535.88;;;16.48;50.77
9141;BME280;46330;50.822;7.126;2022-11-02T09:55:20;101551.59;;;17.38;49.80
9141;BME280;46330;50.822;7.126;2022-11-02T09:57:54;101547.81;;;18.22;47.61
9141;BME280;46330;50.822;7.126;2022-11-02T10:00:26;101554.97;;;18.43;47.80
9141;BME280;46330;50.822;7.126;2022-11-02T10:03:02;101554.06;;;18.44;47.16
9141;BME280;46330;50.822;7.126;2022-11-02T10:05:40;101556.97;;;17.89;45.98
9141;BME280;46330;50.822;7.126;2022-11-02T10:08:18;101558.78;;;18.61;45.51
9141;BME280;46330;50.822;7.126;2022-11-02T10:10:59;101559.00;;;19.21;43.48
9141;BME280;46330;50.822;7.126;2022-11-02T10:13:36;101561.81;;;18.73;43.62
9141;BME280;46330;50.822;7.126;2022-11-02T10:16:12;101563.59;;;18.25;44.00
9141;BME280;46330;50.822;7.126;2022-11-02T10:18:41;101564.59;;;18.70;43.16
9141;BME280;46330;50.822;7.126;2022-11-02T10:21:18;101560.19;;;17.97;44.53
9141;BME280;46330;50.822;7.126;2022-11-02T10:23:50;101558.44;;;18.45;44.19
9141;BME280;46330;50.822;7.126;2022-11-02T10:26:22;101563.25;;;18.34;42.50
9141;BME280;46330;50.822;7.126;2022-11-02T10:28:57;101564.13;;;18.59;42.47
9141;BME280;46330;50.822;7.126;2022-11-02T10:31:29;101559.63;;;19.71;41.28
9141;BME280;46330;50.822;7.126;2022-11-02T10:34:08;101561.88;;;18.47;42.63
9141;BME280;46330;50.822;7.126;2022-11-02T10:36:51;101559.00;;;19.00;42.83
9141;BME280;46330;50.822;7.126;2022-11-02T10:39:28;101554.84;;;18.23;42.28
9141;BME280;46330;50.822;7.126;2022-11-02T10:42:21;101557.97;;;18.09;42.52
9141;BME280;46330;50.822;7.126;2022-11-02T10:45:29;101564.94;;;17.07;42.87
9141;BME280;46330;50.822;7.126;2022-11-02T10:48:07;101561.78;;;16.96;43.78
9141;BME280;46330;50.822;7.126;2022-11-02T10:50:46;101566.06;;;17.54;44.78
9141;BME280;46330;50.822;7.126;2022-11-02T10:53:16;101568.69;;;17.55;43.39
9141;BME280;46330;50.822;7.126;2022-11-02T10:56:11;101568.44;;;17.35;44.13
9141;BME280;46330;50.822;7.126;2022-11-02T10:58:44;101566.91;;;18.07;41.63
9141;BME280;46330;50.822;7.126;2022-11-02T11:01:15;101569.47;;;18.81;41.30
9141;BME280;46330;50.822;7.126;2022-11-02T11:03:53;101559.78;;;18.34;42.00
9141;BME280;46330;50.822;7.126;2022-11-02T11:06:22;101562.53;;;19.22;40.61
9141;BME280;46330;50.822;7.126;2022-11-02T11:08:51;101567.59;;;18.61;40.78
9141;BME280;46330;50.822;7.126;2022-11-02T11:11:21;101559.78;;;18.57;40.86
9141;BME280;46330;50.822;7.126;2022-11-02T11:13:56;101555.28;;;19.49;40.50
9141;BME280;46330;50.822;7.126;2022-11-02T11:16:47;101556.31;;;19.66;40.18
9141;BME280;46330;50.822;7.126;2022-11-02T11:19:21;101561.81;;;19.40;41.06
9141;BME280;46330;50.822;7.126;2022-11-02T11:22:23;101554.41;;;19.26;41.10
9141;BME280;46330;50.822;7.126;2022-11-02T11:24:51;101554.31;;;19.51;41.63
9141;BME280;46330;50.822;7.126;2022-11-02T11:27:20;101553.69;;;18.55;42.49
9141;BME280;46330;50.822;7.126;2022-11-02T11:29:53;101557.50;;;18.71;42.91
9141;BME280;46330;50.822;7.126;2022-11-02T11:32:23;101568.56;;;18.34;42.76
9141;BME280;46330;50.822;7.126;2022-11-02T11:34:58;101563.56;;;18.26;43.07
9141;BME280;46330;50.822;7.126;2022-11-02T11:37:28;101562.28;;;18.61;43.07
9141;BME280;46330;50.822;7.126;2022-11-02T11:39:58;101566.28;;;18.95;42.86
9141;BME280;46330;50.822;7.126;2022-11-02T11:42:29;101560.53;;;19.50;42.43
9141;BME280;46330;50.822;7.126;2022-11-02T11:45:03;101553.03;;;18.71;43.53
9141;BME280;46330;50.822;7.126;2022-11-02T11:47:34;101567.81;;;18.55;43.00
9141;BME280;46330;50.822;7.126;2022-11-02T11:50:05;101558.13;;;18.30;44.19
9141;BME280;46330;50.822;7.126;2022-11-02T11:53:07;101560.38;;;19.10;43.14
9141;BME280;46330;50.822;7.126;2022-11-02T11:55:45;101552.03;;;18.52;44.47
9141;BME280;46330;50.822;7.126;2022-11-02T11:58:15;101544.56;;;18.62;45.05
9141;BME280;46330;50.822;7.126;2022-11-02T12:01:00;101547.00;;;19.13;43.92
9141;BME280;46330;50.822;7.126;2022-11-02T12:03:49;101540.47;;;18.30;45.54
9141;BME280;46330;50.822;7.126;2022-11-02T12:06:24;101542.41;;;18.00;45.80
9141;BME280;46330;50.822;7.126;2022-11-02T12:09:00;101543.91;;;18.09;45.89
9141;BME280;46330;50.822;7.126;2022-11-02T12:11:42;101528.78;;;18.36;44.67
9141;BME280;46330;50.822;7.126;2022-11-02T12:14:18;101524.63;;;18.98;43.67
9141;BME280;46330;50.822;7.126;2022-11-02T12:17:00;101532.97;;;18.41;42.79
9141;BME280;46330;50.822;7.126;2022-11-02T12:19:47;101528.69;;;18.14;44.04
9141;BME280;46330;50.822;7.126;2022-11-02T12:22:23;101518.03;;;17.66;44.03
9141;BME280;46330;50.822;7.126;2022-11-02T12:25:08;101518.91;;;17.91;43.40
9141;BME280;46330;50.822;7.126;2022-11-02T12:27:46;101521.66;;;17.37;43.56
9141;BME280;46330;50.822;7.126;2022-11-02T12:30:20;101524.94;;;17.96;43.69
9141;BME280;46330;50.822;7.126;2022-11-02T12:33:15;101518.88;;;18.17;44.46
9141;BME280;46330;50.822;7.126;2022-11-02T12:35:57;101522.69;;;18.34;43.48
9141;BME280;46330;50.822;7.126;2022-11-02T12:38:42;101514.13;;;17.78;43.54
9141;BME280;46330;50.822;7.126;2022-11-02T12:41:16;101503.69;;;17.98;43.02
9141;BME280;46330;50.822;7.126;2022-11-02T12:43:49;101510.50;;;18.28;43.71
9141;BME280;46330;50.822;7.126;2022-11-02T12:46:30;101498.84;;;18.34;43.16
9141;BME280;46330;50.822;7.126;2022-11-02T12:49:22;101507.78;;;18.06;44.09
9141;BME280;46330;50.822;7.126;2022-11-02T12:51:58;101501.50;;;18.57;43.74
9141;BME280;46330;50.822;7.126;2022-11-02T12:54:35;101504.50;;;18.93;42.54
9141;BME280;46330;50.822;7.126;2022-11-02T12:57:11;101496.09;;;18.82;42.77
9141;BME280;46330;50.822;7.126;2022-11-02T12:59:41;101499.22;;;18.93;41.90
9141;BME280;46330;50.822;7.126;2022-11-02T13:02:13;101502.28;;;19.04;42.20
9141;BME280;46330;50.822;7.126;2022-11-02T13:04:49;101501.25;;;19.08;41.99
9141;BME280;46330;50.822;7.126;2022-11-02T13:07:21;101499.97;;;19.40;42.43
9141;BME280;46330;50.822;7.126;2022-11-02T13:09:55;101498.22;;;18.95;42.18
9141;BME280;46330;50.822;7.126;2022-11-02T13:12:26;101491.09;;;18.04;42.77
9141;BME280;46330;50.822;7.126;2022-11-02T13:14:55;101486.84;;;18.23;43.67
9141;BME280;46330;50.822;7.126;2022-11-02T13:17:27;101485.94;;;18.00;43.86
9141;BME280;46330;50.822;7.126;2022-11-02T13:20:03;101493.69;;;17.56;43.85
9141;BME280;46330;50.822;7.126;2022-11-02T13:22:34;101482.09;;;17.85;44.89
9141;BME280;46330;50.822;7.126;2022-11-02T13:25:13;101488.94;;;17.91;44.01
9141;BME280;46330;50.822;7.126;2022-11-02T13:27:46;101483.19;;;17.80;44.74
9141;BME280;46330;50.822;7.126;2022-11-02T13:30:16;101478.59;;;17.34;45.23